Time;durP1;ratioP1;P1;durP2;ratioP2;P2;SDS_P1;SDS_P2;PMS_P1;PMS_P2;Temp;Humidity;BMP_temperature;BMP_pressure;BME280_temperature;BME280_humidity;BME280_pressure;Samples;Min_cycle;Max_cycle;Signal;HPM_P1;HPM_P2
2022/01/12 00:02:00;;;;;;;54.57;22.77;;;1.00;99.90;;;;;;5040522;28;20215;-65
2022/01/12 00:04:28;;;;;;;52.30;22.03;;;1.00;99.90;;;;;;5015801;28;20247;-65
2022/01/12 00:06:57;;;;;;;46.87;20.50;;;1.00;99.90;;;;;;5047544;28;20257;-65
2022/01/12 00:09:27;;;;;;;53.10;22.07;;;1.00;99.90;;;;;;5044590;28;20268;-64
2022/01/12 00:11:55;;;;;;;51.70;20.70;;;1.00;99.90;;;;;;5046845;28;20180;-64
2022/01/12 00:14:23;;;;;;;53.57;22.07;;;1.10;99.90;;;;;;5045477;28;20276;-65
2022/01/12 00:16:58;;;;;;;54.20;21.93;;;1.10;99.90;;;;;;5046146;28;20288;-65
2022/01/12 00:19:27;;;;;;;53.47;21.97;;;1.10;99.90;;;;;;5045545;28;20601;-65
2022/01/12 00:21:56;;;;;;;50.57;21.53;;;1.00;99.90;;;;;;5047093;28;20247;-64
2022/01/12 00:24:39;;;;;;;54.97;21.50;;;1.00;99.90;;;;;;5043680;28;20197;-65
2022/01/12 00:35:25;;;;;;;54.17;21.77;;;1.10;99.90;;;;;;5046035;28;20228;-65
2022/01/12 00:37:54;;;;;;;55.07;23.10;;;1.10;99.90;;;;;;5045762;28;20291;-65
2022/01/12 00:40:23;;;;;;;53.07;21.10;;;1.10;99.90;;;;;;5042284;28;20254;-65
2022/01/12 00:42:52;;;;;;;54.67;22.80;;;1.10;99.90;;;;;;5046979;28;20251;-64
2022/01/12 00:45:21;;;;;;;59.10;23.17;;;1.10;99.90;;;;;;5045894;28;20201;-65
2022/01/12 00:47:49;;;;;;;57.37;23.50;;;1.10;99.90;;;;;;5045022;28;20778;-65
2022/01/12 00:50:18;;;;;;;60.17;23.07;;;1.10;99.90;;;;;;5047043;28;20192;-65
2022/01/12 00:52:48;;;;;;;54.37;22.70;;;1.10;99.90;;;;;;5043027;28;20272;-65
2022/01/12 00:55:19;;;;;;;55.20;22.43;;;1.10;99.90;;;;;;5041096;28;20207;-65
2022/01/12 00:57:50;;;;;;;58.30;22.53;;;1.10;99.90;;;;;;5045553;28;20192;-65
2022/01/12 01:00:21;;;;;;;63.47;23.00;;;1.10;99.90;;;;;;5040615;28;20242;-65
2022/01/12 01:03:10;;;;;;;64.10;23.70;;;1.10;99.90;;;;;;5046769;28;20209;-64
2022/01/12 01:05:39;;;;;;;58.53;22.30;;;1.10;99.90;;;;;;5043684;28;20567;-65
2022/01/12 01:08:08;;;;;;;68.03;24.50;;;1.10;99.90;;;;;;5041886;28;20216;-65
2022/01/12 01:10:47;;;;;;;62.20;24.00;;;1.10;99.90;;;;;;5038693;28;20262;-65
2022/01/12 01:13:22;;;;;;;64.33;23.60;;;1.10;99.90;;;;;;5042364;28;20242;-65
2022/01/12 01:15:57;;;;;;;59.97;23.07;;;1.10;99.90;;;;;;5044921;28;20280;-65
2022/01/12 01:26:47;;;;;;;73.00;24.47;;;0.80;99.90;;;;;;5035424;28;20649;-65
2022/01/12 01:29:17;;;;;;;66.57;23.20;;;0.70;99.90;;;;;;5045228;28;20258;-65
2022/01/12 01:31:46;;;;;;;74.50;25.37;;;0.80;99.90;;;;;;5042123;28;20197;-64
2022/01/12 01:34:16;;;;;;;69.00;24.13;;;0.80;99.90;;;;;;5040553;28;20257;-65
2022/01/12 01:36:47;;;;;;;66.27;23.90;;;0.80;99.90;;;;;;5043542;28;20254;-65
2022/01/12 01:39:18;;;;;;;60.93;22.70;;;0.80;99.90;;;;;;5040676;28;20721;-65
2022/01/12 01:41:51;;;;;;;66.17;23.60;;;0.80;99.90;;;;;;5043290;28;20278;-65
2022/01/12 01:55:31;;;;;;;63.00;22.93;;;1.00;99.90;;;;;;5037201;28;20696;-65
2022/01/12 01:58:00;;;;;;;60.43;22.87;;;1.00;99.90;;;;;;5048710;28;20252;-64
2022/01/12 02:00:32;;;;;;;55.67;20.70;;;0.90;99.90;;;;;;5045755;28;20192;-64
2022/01/12 02:03:01;;;;;;;57.87;21.43;;;1.00;99.90;;;;;;5049601;28;20207;-65
2022/01/12 02:05:31;;;;;;;50.77;21.53;;;1.00;99.90;;;;;;5043848;28;20200;-64
2022/01/12 02:07:59;;;;;;;57.00;21.47;;;1.00;99.90;;;;;;5048984;28;20204;-65
2022/01/12 02:10:28;;;;;;;53.57;21.30;;;1.00;99.90;;;;;;5040265;28;20895;-64
2022/01/12 02:12:56;;;;;;;60.70;22.50;;;1.00;99.90;;;;;;5045839;28;20197;-65
2022/01/12 02:15:25;;;;;;;53.10;21.60;;;1.00;99.90;;;;;;5048400;28;20197;-64
2022/01/12 02:18:09;;;;;;;60.10;22.63;;;1.10;99.90;;;;;;5048533;28;20207;-65
2022/01/12 02:35:20;;;;;;;62.77;22.03;;;1.10;99.90;;;;;;5046150;28;20603;-65
2022/01/12 02:40:40;;;;;;;66.33;22.87;;;1.10;99.90;;;;;;5046119;28;20221;-65
2022/01/12 02:43:14;;;;;;;69.50;22.33;;;1.10;99.90;;;;;;5048225;28;20224;-65
2022/01/12 02:51:31;;;;;;;64.53;22.10;;;1.20;99.90;;;;;;5035167;28;20189;-65
2022/01/12 02:54:00;;;;;;;64.40;22.60;;;1.20;99.90;;;;;;5047946;28;20272;-64
2022/01/12 02:56:30;;;;;;;70.37;23.17;;;1.20;99.90;;;;;;5047327;28;20275;-65
2022/01/12 02:59:00;;;;;;;71.70;23.90;;;1.20;99.90;;;;;;5049099;28;20196;-65
2022/01/12 03:04:15;;;;;;;69.27;23.17;;;1.30;99.90;;;;;;5045044;28;20846;-65
2022/01/12 03:06:45;;;;;;;69.13;23.57;;;1.30;99.90;;;;;;5047628;28;20625;-65
2022/01/12 03:09:15;;;;;;;66.77;22.73;;;1.30;99.90;;;;;;5049628;28;20221;-65
2022/01/12 03:11:43;;;;;;;68.83;23.00;;;1.30;99.90;;;;;;5047451;28;20197;-65
2022/01/12 03:14:12;;;;;;;71.23;23.07;;;1.30;99.90;;;;;;5046933;28;20263;-65
2022/01/12 03:16:42;;;;;;;67.97;23.87;;;1.30;99.90;;;;;;5048413;28;20275;-65
2022/01/12 03:19:10;;;;;;;70.23;24.13;;;1.30;99.90;;;;;;5041869;28;20877;-64
2022/01/12 03:21:38;;;;;;;67.93;24.47;;;1.40;99.90;;;;;;5045450;28;20214;-65
2022/01/12 03:24:09;;;;;;;70.10;23.77;;;1.30;99.90;;;;;;5046463;28;20189;-65
2022/01/12 03:26:38;;;;;;;68.90;24.03;;;1.30;99.90;;;;;;5046059;28;20223;-65
2022/01/12 03:29:07;;;;;;;65.67;22.93;;;1.30;99.90;;;;;;5046406;28;20220;-65
2022/01/12 03:31:36;;;;;;;72.97;23.70;;;1.30;99.90;;;;;;5046610;28;20215;-65
2022/01/12 03:34:09;;;;;;;66.73;23.30;;;1.30;99.90;;;;;;5045978;28;20197;-65
2022/01/12 03:36:53;;;;;;;66.07;23.37;;;1.30;99.90;;;;;;5048501;28;20231;-65
2022/01/12 03:39:21;;;;;;;70.37;23.20;;;1.40;99.90;;;;;;5044978;28;20228;-65
2022/01/12 03:41:51;;;;;;;64.60;22.70;;;1.40;99.90;;;;;;5047439;28;20192;-65
2022/01/12 03:44:19;;;;;;;71.77;24.50;;;1.40;99.90;;;;;;5046714;28;20311;-65
2022/01/12 03:46:51;;;;;;;73.40;24.70;;;1.40;99.90;;;;;;5045211;28;20210;-65
2022/01/12 03:49:22;;;;;;;73.13;24.23;;;1.40;99.90;;;;;;5041346;28;20264;-65
2022/01/12 03:51:51;;;;;;;74.70;24.77;;;1.50;99.90;;;;;;5043923;28;20666;-65
2022/01/12 03:54:19;;;;;;;72.57;24.20;;;1.50;99.90;;;;;;5043899;28;20276;-65
2022/01/12 03:56:48;;;;;;;74.23;24.00;;;1.50;99.90;;;;;;5043168;28;20195;-66
2022/01/12 03:59:18;;;;;;;76.27;24.60;;;1.50;99.90;;;;;;5043800;28;20281;-65
2022/01/12 04:01:46;;;;;;;82.63;25.03;;;1.50;99.90;;;;;;5047588;28;20250;-65
2022/01/12 04:04:22;;;;;;;81.03;25.30;;;1.50;99.90;;;;;;5043068;28;20193;-65
2022/01/12 04:09:45;;;;;;;73.90;24.83;;;1.50;99.90;;;;;;5042844;28;20226;-65
2022/01/12 04:12:15;;;;;;;68.27;24.10;;;1.50;99.90;;;;;;5041165;28;20203;-64
2022/01/12 04:14:45;;;;;;;85.20;26.33;;;1.60;99.90;;;;;;5045020;28;20279;-65
2022/01/12 04:17:14;;;;;;;70.27;24.00;;;1.60;99.90;;;;;;5041000;28;20211;-64
2022/01/12 04:19:43;;;;;;;79.43;25.23;;;1.60;99.90;;;;;;5046741;28;20268;-65
2022/01/12 04:24:54;;;;;;;80.97;25.27;;;1.70;99.90;;;;;;5043665;28;20228;-65
2022/01/12 04:27:24;;;;;;;80.20;25.80;;;1.60;99.90;;;;;;5045314;28;20233;-65
2022/01/12 04:29:53;;;;;;;77.57;25.47;;;1.60;99.90;;;;;;5032383;28;20221;-65
2022/01/12 04:32:23;;;;;;;76.40;24.97;;;1.60;99.90;;;;;;5041362;28;20197;-65
2022/01/12 04:34:53;;;;;;;77.97;25.70;;;1.60;99.90;;;;;;5047536;28;20236;-65
2022/01/12 04:37:21;;;;;;;82.80;25.50;;;1.60;99.90;;;;;;5042514;28;20644;-65
2022/01/12 04:39:49;;;;;;;82.07;25.97;;;1.60;99.90;;;;;;5046773;28;20846;-65
2022/01/12 04:42:18;;;;;;;76.53;25.87;;;1.70;99.90;;;;;;5045815;28;20204;-65
2022/01/12 04:44:48;;;;;;;80.70;27.60;;;1.70;99.90;;;;;;5043669;28;20353;-65
2022/01/12 04:47:30;;;;;;;72.00;25.10;;;1.80;99.90;;;;;;5045667;28;20193;-64
2022/01/12 04:49:59;;;;;;;80.47;26.60;;;1.80;99.90;;;;;;5045291;28;20729;-65
2022/01/12 04:52:27;;;;;;;76.40;25.43;;;1.80;99.90;;;;;;5045068;28;20204;-65
2022/01/12 04:54:55;;;;;;;75.70;26.40;;;1.80;99.90;;;;;;5047001;28;20870;-65
2022/01/12 04:57:24;;;;;;;81.60;26.97;;;1.70;99.90;;;;;;5044574;28;20287;-65
2022/01/12 05:00:04;;;;;;;82.33;28.00;;;1.70;99.90;;;;;;5036312;28;20262;-65
2022/01/12 05:08:18;;;;;;;78.90;26.43;;;1.70;99.90;;;;;;5044786;28;20232;-65
2022/01/12 05:13:35;;;;;;;84.20;26.23;;;1.70;99.90;;;;;;5043401;28;20189;-65
2022/01/12 05:16:04;;;;;;;77.93;26.37;;;1.70;99.90;;;;;;5046689;28;20258;-64
2022/01/12 05:18:35;;;;;;;76.70;25.03;;;1.70;99.90;;;;;;5037945;28;20204;-65
2022/01/12 05:21:04;;;;;;;84.73;27.27;;;1.70;99.90;;;;;;5045302;28;20716;-65
2022/01/12 05:23:33;;;;;;;84.50;26.63;;;1.70;99.90;;;;;;5046771;28;20703;-65
2022/01/12 05:26:02;;;;;;;79.77;26.77;;;1.80;99.90;;;;;;5049397;28;20303;-65
2022/01/12 05:28:31;;;;;;;77.97;26.23;;;1.80;99.90;;;;;;5042672;28;20200;-65
2022/01/12 05:31:01;;;;;;;78.43;25.70;;;1.80;99.90;;;;;;5050463;28;20890;-65
2022/01/12 05:33:30;;;;;;;78.47;27.07;;;1.80;99.90;;;;;;5047971;28;20216;-65
2022/01/12 05:36:03;;;;;;;79.93;25.63;;;1.80;99.90;;;;;;5049860;28;20260;-65
2022/01/12 05:38:32;;;;;;;84.00;26.80;;;1.80;99.90;;;;;;5042193;28;20668;-65
2022/01/12 05:41:03;;;;;;;86.00;27.63;;;1.90;99.90;;;;;;5049492;28;20205;-65
2022/01/12 05:43:35;;;;;;;73.47;25.63;;;1.80;99.90;;;;;;5046990;28;20239;-65
2022/01/12 05:46:09;;;;;;;72.07;25.43;;;1.80;99.90;;;;;;5050389;28;20200;-65
2022/01/12 05:51:26;;;;;;;81.23;26.50;;;1.90;99.90;;;;;;5049072;28;20687;-65
2022/01/12 05:53:55;;;;;;;74.70;26.60;;;1.90;99.90;;;;;;5047024;28;21974;-65
2022/01/12 05:56:23;;;;;;;84.27;28.10;;;1.90;99.90;;;;;;5048612;28;20231;-65
2022/01/12 05:58:52;;;;;;;84.80;27.70;;;2.00;99.90;;;;;;5049294;28;20200;-65
2022/01/12 06:01:21;;;;;;;77.20;27.57;;;2.00;99.90;;;;;;5039883;28;20280;-64
2022/01/12 06:03:49;;;;;;;86.33;27.57;;;2.00;99.90;;;;;;5047963;28;20238;-65
2022/01/12 06:06:18;;;;;;;82.07;26.27;;;2.00;99.90;;;;;;5047988;28;20678;-65
2022/01/12 06:08:48;;;;;;;80.67;26.53;;;1.90;99.90;;;;;;5050687;28;20197;-65
2022/01/12 06:11:16;;;;;;;86.27;27.10;;;1.90;99.90;;;;;;5046102;28;20212;-65
2022/01/12 06:13:45;;;;;;;89.87;27.63;;;1.90;99.90;;;;;;5047385;28;20557;-65
2022/01/12 06:16:14;;;;;;;86.03;28.47;;;1.90;99.90;;;;;;5044397;28;20675;-65
2022/01/12 06:18:42;;;;;;;76.53;26.57;;;1.90;99.90;;;;;;5048838;28;20720;-65
2022/01/12 06:21:10;;;;;;;84.73;26.97;;;1.90;99.90;;;;;;5047938;28;20189;-65
2022/01/12 06:23:39;;;;;;;82.53;28.00;;;2.00;99.90;;;;;;5050524;28;20189;-65
2022/01/12 06:26:09;;;;;;;85.27;28.20;;;2.00;99.90;;;;;;5048328;28;20281;-65
2022/01/12 06:28:41;;;;;;;83.50;27.43;;;2.00;99.90;;;;;;5046445;28;20200;-65
2022/01/12 06:31:12;;;;;;;80.73;27.70;;;1.90;99.90;;;;;;5047982;28;20220;-65
2022/01/12 06:33:43;;;;;;;90.80;29.07;;;2.00;99.90;;;;;;5045143;28;20189;-65
2022/01/12 06:36:13;;;;;;;87.60;28.20;;;2.00;99.90;;;;;;5046019;28;20240;-65
2022/01/12 06:38:41;;;;;;;86.13;27.37;;;1.90;99.90;;;;;;5046157;28;20231;-65
2022/01/12 06:41:13;;;;;;;104.07;29.13;;;1.90;99.90;;;;;;5045366;28;20221;-65
2022/01/12 06:43:42;;;;;;;100.33;29.97;;;2.00;99.90;;;;;;5043095;28;20208;-65
2022/01/12 06:46:11;;;;;;;91.13;28.27;;;2.00;99.90;;;;;;5045077;28;20212;-65
2022/01/12 06:48:40;;;;;;;95.27;28.17;;;2.00;99.90;;;;;;5043075;28;20671;-65
2022/01/12 06:51:08;;;;;;;94.23;29.73;;;2.00;99.90;;;;;;5042945;28;20292;-65
2022/01/12 06:53:36;;;;;;;102.90;30.70;;;2.00;99.90;;;;;;5028474;28;20189;-65
2022/01/12 06:56:05;;;;;;;105.90;31.77;;;2.10;99.90;;;;;;5045470;28;20726;-65
2022/01/12 06:58:35;;;;;;;91.60;29.13;;;2.10;99.90;;;;;;5046882;28;20555;-65
2022/01/12 07:01:04;;;;;;;93.77;29.77;;;2.10;99.90;;;;;;5048799;28;20691;-65
2022/01/12 07:03:32;;;;;;;103.17;30.03;;;2.10;99.90;;;;;;5041678;28;21381;-65
2022/01/12 07:06:04;;;;;;;109.73;29.90;;;2.10;99.90;;;;;;5044783;28;20660;-65
2022/01/12 07:08:34;;;;;;;102.87;30.17;;;2.10;99.90;;;;;;5046845;28;20196;-65
2022/01/12 07:11:03;;;;;;;96.70;29.57;;;2.10;99.90;;;;;;5046860;28;20674;-65
2022/01/12 07:13:32;;;;;;;104.93;31.53;;;2.10;99.90;;;;;;5045061;28;20224;-65
2022/01/12 07:16:01;;;;;;;102.07;30.23;;;2.10;99.90;;;;;;5046078;28;20232;-65
2022/01/12 07:18:30;;;;;;;96.23;29.93;;;2.10;99.90;;;;;;5046625;28;20200;-65
2022/01/12 07:20:59;;;;;;;107.53;31.50;;;2.10;99.90;;;;;;5046678;28;20577;-65
2022/01/12 07:23:28;;;;;;;100.07;32.10;;;2.20;99.90;;;;;;5048667;28;20629;-65
2022/01/12 07:25:57;;;;;;;111.30;31.83;;;2.20;99.90;;;;;;5049124;28;20326;-65
2022/01/12 07:28:25;;;;;;;100.63;31.80;;;2.20;99.90;;;;;;5040894;28;20197;-65
2022/01/12 07:30:54;;;;;;;119.67;33.20;;;2.20;99.90;;;;;;5047880;28;20205;-65
2022/01/12 07:33:25;;;;;;;108.53;30.73;;;2.20;99.90;;;;;;5047485;28;20185;-65
2022/01/12 07:35:54;;;;;;;111.53;32.00;;;2.20;99.90;;;;;;5046725;28;20232;-65
2022/01/12 07:38:22;;;;;;;117.13;33.00;;;2.20;99.90;;;;;;5045126;28;20280;-65
2022/01/12 07:40:51;;;;;;;113.37;33.10;;;2.20;99.90;;;;;;5045081;28;20678;-65
2022/01/12 07:43:19;;;;;;;113.90;34.27;;;2.20;99.90;;;;;;5046036;28;20220;-65
2022/01/12 07:45:48;;;;;;;120.57;33.87;;;2.20;99.90;;;;;;5045517;28;20201;-65
2022/01/12 07:48:16;;;;;;;122.30;34.37;;;2.20;99.90;;;;;;5037231;28;20188;-65
2022/01/12 07:50:46;;;;;;;119.17;35.17;;;2.20;99.90;;;;;;5043785;28;20274;-65
2022/01/12 07:53:14;;;;;;;121.73;35.40;;;2.20;99.90;;;;;;5040494;28;20231;-65
2022/01/12 07:55:43;;;;;;;120.30;33.60;;;2.20;99.90;;;;;;5040818;28;20279;-65
2022/01/12 07:58:11;;;;;;;116.90;33.43;;;2.20;99.90;;;;;;5044976;28;20703;-65
2022/01/12 08:00:39;;;;;;;114.10;33.37;;;2.20;99.90;;;;;;5045201;28;20243;-65
2022/01/12 08:03:08;;;;;;;118.77;32.83;;;2.30;99.90;;;;;;5046425;28;20208;-65
2022/01/12 08:05:36;;;;;;;117.37;32.27;;;2.30;99.90;;;;;;5045690;28;20189;-65
2022/01/12 08:08:06;;;;;;;119.97;32.00;;;2.30;99.90;;;;;;5041458;28;20242;-65
2022/01/12 08:10:35;;;;;;;119.60;33.43;;;2.30;99.90;;;;;;5045887;28;20279;-65
2022/01/12 08:13:06;;;;;;;123.77;33.40;;;2.30;99.90;;;;;;5047216;28;20367;-65
2022/01/12 08:15:34;;;;;;;123.47;34.50;;;2.40;99.90;;;;;;5042615;28;20280;-65
2022/01/12 08:18:03;;;;;;;124.33;33.63;;;2.40;99.90;;;;;;5044499;28;20216;-65
2022/01/12 08:20:31;;;;;;;166.93;57.17;;;2.40;99.90;;;;;;5041972;28;20193;-65
2022/01/12 08:23:00;;;;;;;129.73;36.87;;;2.40;99.90;;;;;;5042779;28;20254;-65
2022/01/12 08:25:30;;;;;;;201.13;70.53;;;2.40;99.90;;;;;;5040429;28;20545;-65
2022/01/12 08:27:58;;;;;;;290.00;99.93;;;2.50;99.90;;;;;;5043516;28;20197;-65
2022/01/12 08:30:30;;;;;;;138.87;37.43;;;2.50;99.90;;;;;;5039611;28;20259;-64
2022/01/12 08:32:59;;;;;;;117.17;34.63;;;2.50;99.90;;;;;;5038461;28;20244;-65
2022/01/12 08:35:28;;;;;;;129.80;36.27;;;2.50;99.90;;;;;;5039049;28;20307;-65
2022/01/12 08:37:57;;;;;;;224.80;78.53;;;2.60;99.90;;;;;;5042633;28;20439;-65
2022/01/12 08:40:26;;;;;;;158.90;48.10;;;2.60;99.90;;;;;;5032011;28;20849;-65
2022/01/12 08:42:56;;;;;;;140.23;37.83;;;2.60;99.90;;;;;;5042192;28;20199;-65
2022/01/12 08:45:25;;;;;;;136.70;35.40;;;2.60;99.90;;;;;;5044767;28;20684;-64
2022/01/12 08:47:53;;;;;;;144.27;36.83;;;2.60;99.90;;;;;;5045158;28;20742;-65
2022/01/12 08:50:22;;;;;;;167.63;37.50;;;2.70;99.90;;;;;;5042275;28;20271;-65
2022/01/12 08:52:51;;;;;;;144.67;35.90;;;2.70;99.90;;;;;;5046331;28;20684;-65
2022/01/12 08:55:22;;;;;;;143.20;37.80;;;2.70;99.90;;;;;;5046086;28;20292;-65
2022/01/12 08:57:51;;;;;;;153.50;36.80;;;2.70;99.90;;;;;;5043902;28;20199;-65
2022/01/12 09:00:21;;;;;;;150.77;37.83;;;2.70;99.90;;;;;;5044007;28;20288;-65
2022/01/12 09:02:49;;;;;;;161.30;42.57;;;2.80;99.90;;;;;;5044479;28;20613;-65
2022/01/12 09:05:18;;;;;;;141.03;36.20;;;2.80;99.90;;;;;;5045173;28;20767;-65
2022/01/12 09:07:47;;;;;;;153.00;37.10;;;2.80;99.90;;;;;;5045506;28;20653;-65
2022/01/12 09:10:15;;;;;;;175.23;48.27;;;2.80;99.90;;;;;;5044631;28;20262;-65
2022/01/12 09:12:44;;;;;;;207.10;59.57;;;2.80;99.90;;;;;;5046836;28;20571;-65
2022/01/12 09:15:14;;;;;;;163.07;43.27;;;2.80;99.90;;;;;;5044715;28;20193;-65
2022/01/12 09:17:46;;;;;;;152.83;38.80;;;2.80;99.90;;;;;;5043914;28;20287;-65
2022/01/12 09:20:15;;;;;;;166.90;40.17;;;2.90;99.90;;;;;;5043245;28;20197;-65
2022/01/12 09:22:43;;;;;;;159.50;37.80;;;2.90;99.90;;;;;;5045935;28;20696;-65
2022/01/12 09:25:12;;;;;;;157.53;39.20;;;2.90;99.90;;;;;;5045933;28;20219;-65
2022/01/12 09:27:41;;;;;;;148.03;37.97;;;3.00;99.90;;;;;;5044398;28;20201;-65
2022/01/12 09:30:12;;;;;;;147.93;37.90;;;3.10;99.90;;;;;;5044780;28;20298;-65
2022/01/12 09:32:41;;;;;;;162.97;38.73;;;3.10;99.90;;;;;;5041902;28;20413;-65
2022/01/12 09:35:17;;;;;;;148.10;39.17;;;3.20;99.90;;;;;;5031789;28;20229;-65
2022/01/12 09:37:46;;;;;;;178.07;46.83;;;3.20;99.90;;;;;;5041220;28;20256;-65
2022/01/12 09:40:14;;;;;;;153.27;40.73;;;3.20;99.90;;;;;;5044383;28;20204;-65
2022/01/12 09:42:44;;;;;;;164.43;44.40;;;3.30;99.90;;;;;;5042628;28;20249;-65
2022/01/12 09:45:15;;;;;;;170.23;41.40;;;3.30;99.90;;;;;;5042702;28;20201;-65
2022/01/12 09:47:47;;;;;;;190.53;54.97;;;3.40;99.90;;;;;;5044701;28;20227;-65
2022/01/12 09:50:20;;;;;;;167.07;43.33;;;3.50;99.90;;;;;;5042653;28;20222;-65
2022/01/12 09:52:49;;;;;;;172.43;46.77;;;3.50;99.90;;;;;;5039672;28;20307;-65
2022/01/12 09:55:18;;;;;;;189.30;50.47;;;3.60;99.90;;;;;;5032225;28;20208;-65
2022/01/12 09:57:47;;;;;;;152.37;40.27;;;3.60;99.90;;;;;;5046116;28;20204;-65
2022/01/12 10:00:22;;;;;;;174.67;39.37;;;3.60;99.90;;;;;;5023702;28;20250;-65
2022/01/12 10:02:51;;;;;;;153.13;41.33;;;3.70;99.90;;;;;;5046503;28;20671;-65
2022/01/12 10:05:30;;;;;;;143.10;36.90;;;3.80;99.90;;;;;;5044118;28;20231;-65
2022/01/12 10:08:17;;;;;;;166.03;40.57;;;3.90;99.90;;;;;;5043749;28;20213;-65
2022/01/12 10:11:03;;;;;;;137.67;36.23;;;3.90;99.90;;;;;;5041581;28;20267;-65
2022/01/12 10:13:31;;;;;;;147.53;39.53;;;4.00;99.90;;;;;;5047573;28;20258;-65
2022/01/12 10:16:11;;;;;;;135.07;38.47;;;4.10;99.90;;;;;;5045875;28;20628;-65
2022/01/12 10:18:50;;;;;;;137.27;38.50;;;4.20;99.90;;;;;;5045929;28;20258;-65
2022/01/12 10:21:31;;;;;;;139.43;39.07;;;4.20;99.90;;;;;;5042943;28;20762;-65
2022/01/12 10:24:03;;;;;;;141.30;36.80;;;4.20;99.90;;;;;;5044301;28;20193;-65
2022/01/12 10:26:39;;;;;;;140.93;38.07;;;4.20;99.90;;;;;;5047350;28;20200;-65
2022/01/12 10:29:11;;;;;;;142.83;38.03;;;4.20;99.90;;;;;;5034022;28;20666;-65
2022/01/12 10:31:51;;;;;;;136.47;36.93;;;4.30;99.90;;;;;;5043596;28;20263;-66
2022/01/12 10:34:22;;;;;;;176.93;53.30;;;4.30;99.90;;;;;;5048535;28;20235;-65
2022/01/12 10:36:54;;;;;;;156.50;39.90;;;4.40;99.90;;;;;;5040748;28;20292;-65
2022/01/12 10:39:26;;;;;;;164.20;42.63;;;4.40;99.90;;;;;;5047961;28;20204;-66
2022/01/12 10:42:00;;;;;;;142.20;37.90;;;4.50;99.90;;;;;;5044888;28;20189;-65
2022/01/12 10:44:31;;;;;;;184.00;54.80;;;4.60;99.90;;;;;;5048270;28;20193;-66
2022/01/12 10:47:08;;;;;;;165.30;47.33;;;4.60;99.90;;;;;;5044574;28;20295;-65
2022/01/12 10:49:38;;;;;;;168.77;50.80;;;4.70;99.90;;;;;;5044856;28;20195;-65
2022/01/12 10:52:10;;;;;;;159.50;41.67;;;4.70;99.90;;;;;;5048347;28;20201;-65
2022/01/12 10:54:47;;;;;;;126.67;35.70;;;4.70;99.90;;;;;;5040675;28;20628;-65
2022/01/12 10:57:22;;;;;;;134.97;34.77;;;4.70;99.90;;;;;;5047686;28;20261;-66
2022/01/12 11:00:19;;;;;;;136.67;36.43;;;4.70;99.90;;;;;;5033239;28;20235;-65
2022/01/12 11:02:50;;;;;;;122.73;34.60;;;4.80;99.90;;;;;;5047844;28;20200;-65
2022/01/12 11:05:21;;;;;;;123.40;33.70;;;4.70;99.90;;;;;;5046288;28;20292;-65
2022/01/12 11:07:52;;;;;;;126.07;34.73;;;4.70;99.90;;;;;;5048369;28;20213;-65
2022/01/12 11:10:21;;;;;;;131.10;34.77;;;4.70;99.90;;;;;;5046450;28;20271;-65
2022/01/12 11:12:51;;;;;;;132.13;35.60;;;4.70;99.90;;;;;;5047422;28;20203;-65
2022/01/12 11:15:22;;;;;;;143.33;37.80;;;4.70;99.90;;;;;;5047385;28;20772;-65
2022/01/12 11:17:52;;;;;;;145.67;36.13;;;4.70;99.90;;;;;;5046094;28;20196;-65
2022/01/12 11:20:25;;;;;;;113.67;32.03;;;4.80;99.90;;;;;;5050101;28;20220;-66
2022/01/12 11:23:04;;;;;;;123.23;33.53;;;4.80;99.90;;;;;;5049777;28;20228;-65
2022/01/12 11:25:36;;;;;;;123.33;32.77;;;4.90;99.90;;;;;;5050053;28;20203;-65
2022/01/12 11:28:10;;;;;;;116.33;34.37;;;4.90;99.90;;;;;;5047438;28;20544;-65
2022/01/12 11:30:41;;;;;;;125.87;32.83;;;4.90;99.90;;;;;;5043976;28;20674;-65
2022/01/12 11:33:12;;;;;;;107.07;30.87;;;5.00;99.90;;;;;;5046418;28;20221;-66
2022/01/12 11:35:43;;;;;;;92.27;28.57;;;5.00;99.90;;;;;;5046989;28;20817;-65
2022/01/12 11:38:24;;;;;;;101.67;29.00;;;5.00;99.90;;;;;;5046988;28;20201;-66
2022/01/12 11:40:54;;;;;;;93.23;27.27;;;5.00;99.90;;;;;;5044110;28;20205;-66
2022/01/12 11:43:27;;;;;;;113.17;29.60;;;5.00;99.90;;;;;;5046044;28;20185;-66
2022/01/12 11:46:05;;;;;;;107.97;30.40;;;4.90;99.90;;;;;;5040039;28;20209;-66
2022/01/12 11:48:36;;;;;;;105.43;28.80;;;4.80;99.90;;;;;;5040509;28;20669;-65
2022/01/12 11:51:05;;;;;;;128.37;31.57;;;4.80;99.90;;;;;;5043202;28;20193;-66
2022/01/12 11:53:44;;;;;;;160.17;32.40;;;4.80;99.90;;;;;;5041029;28;20217;-65
2022/01/12 11:56:15;;;;;;;119.40;29.77;;;4.70;99.90;;;;;;5044664;28;20220;-66
2022/01/12 11:59:01;;;;;;;113.37;29.20;;;4.70;99.90;;;;;;5041794;28;20197;-66
2022/01/12 12:01:45;;;;;;;140.03;30.70;;;4.80;99.90;;;;;;5041275;28;20682;-66
2022/01/12 12:04:26;;;;;;;120.00;29.60;;;4.80;99.90;;;;;;5038940;28;20207;-66
2022/01/12 12:07:10;;;;;;;216.50;28.67;;;4.70;99.90;;;;;;5040398;28;20263;-66
2022/01/12 12:09:44;;;;;;;103.23;25.73;;;4.70;99.90;;;;;;5041317;28;20228;-65
2022/01/12 12:12:14;;;;;;;115.67;26.63;;;4.80;99.90;;;;;;5041500;28;20207;-66
2022/01/12 12:14:46;;;;;;;150.03;30.07;;;4.80;99.90;;;;;;5042807;28;20208;-65
2022/01/12 12:17:16;;;;;;;117.73;26.27;;;4.80;99.90;;;;;;5041587;28;20216;-66
2022/01/12 12:19:45;;;;;;;100.03;27.53;;;4.80;99.90;;;;;;5039114;28;20228;-66
2022/01/12 12:22:16;;;;;;;105.17;26.67;;;4.80;99.90;;;;;;5041660;28;20540;-66
2022/01/12 12:24:48;;;;;;;118.70;27.00;;;4.80;99.90;;;;;;5041112;28;20593;-66
2022/01/12 12:27:19;;;;;;;102.40;25.90;;;4.80;99.90;;;;;;5039086;28;20192;-66
2022/01/12 12:29:50;;;;;;;103.00;25.60;;;4.80;99.90;;;;;;5045925;28;20204;-66
2022/01/12 12:32:20;;;;;;;97.63;26.60;;;4.90;99.90;;;;;;5037432;28;20743;-65
2022/01/12 12:34:59;;;;;;;87.53;25.90;;;4.80;99.90;;;;;;5039646;28;20259;-66
2022/01/12 12:37:35;;;;;;;99.33;27.10;;;4.90;99.90;;;;;;5039305;28;20234;-66
2022/01/12 12:40:18;;;;;;;107.50;27.10;;;4.90;99.90;;;;;;5040330;28;20200;-66
2022/01/12 12:42:49;;;;;;;115.20;26.73;;;4.90;99.90;;;;;;5043274;28;20196;-66
2022/01/12 12:45:18;;;;;;;78.93;26.63;;;4.90;99.90;;;;;;5041976;28;20242;-66
2022/01/12 12:47:46;;;;;;;119.13;27.40;;;4.90;99.90;;;;;;5036704;28;20239;-66
2022/01/12 12:50:15;;;;;;;157.33;28.20;;;4.90;99.90;;;;;;5040701;28;20197;-65
2022/01/12 12:52:43;;;;;;;169.93;28.07;;;4.90;99.90;;;;;;5058062;28;20225;-65
2022/01/12 12:55:16;;;;;;;150.27;28.60;;;4.70;99.90;;;;;;5038449;28;20221;-66
2022/01/12 12:57:50;;;;;;;157.63;26.33;;;4.70;99.90;;;;;;5045395;28;20181;-66
2022/01/12 13:00:21;;;;;;;75.00;22.47;;;4.70;99.90;;;;;;5046370;28;20189;-66
2022/01/12 13:02:52;;;;;;;130.07;23.77;;;4.70;99.90;;;;;;5042319;28;20596;-66
2022/01/12 13:05:24;;;;;;;136.10;23.97;;;4.70;99.90;;;;;;5044738;28;20207;-66
2022/01/12 13:07:53;;;;;;;140.77;24.30;;;4.70;99.90;;;;;;5044860;28;20833;-66
2022/01/12 13:10:26;;;;;;;129.10;25.40;;;4.70;99.90;;;;;;5043354;28;20204;-65
2022/01/12 13:12:57;;;;;;;104.47;24.37;;;4.60;99.90;;;;;;5040427;28;20284;-66
2022/01/12 13:15:28;;;;;;;88.17;25.70;;;4.60;99.90;;;;;;5044996;28;20212;-65
2022/01/12 13:18:05;;;;;;;146.47;23.20;;;4.70;99.90;;;;;;5044466;28;20303;-66
2022/01/12 13:23:22;;;;;;;175.93;23.67;;;4.60;99.90;;;;;;5043260;28;20185;-65
2022/01/12 13:25:55;;;;;;;80.17;22.23;;;4.50;99.90;;;;;;5046550;28;20185;-66
2022/01/12 13:28:24;;;;;;;123.00;22.60;;;4.50;99.90;;;;;;5042153;28;20196;-66
2022/01/12 13:30:56;;;;;;;108.23;21.50;;;4.50;99.90;;;;;;5040882;28;20201;-65
2022/01/12 13:33:27;;;;;;;113.43;21.30;;;4.50;99.90;;;;;;5034624;28;20279;-65
2022/01/12 13:35:58;;;;;;;89.20;21.93;;;4.50;99.90;;;;;;5041090;28;20287;-66
2022/01/12 13:38:30;;;;;;;128.87;21.73;;;4.40;99.90;;;;;;5036499;28;20201;-65
2022/01/12 13:41:08;;;;;;;105.90;22.13;;;4.40;99.90;;;;;;5037548;28;20213;-66
2022/01/12 13:43:38;;;;;;;72.73;21.83;;;4.40;99.90;;;;;;5047621;28;20211;-65
2022/01/12 13:46:13;;;;;;;90.43;20.40;;;4.40;99.90;;;;;;5050872;28;20617;-66
2022/01/12 13:49:08;;;;;;;113.73;21.73;;;4.50;99.90;;;;;;5050829;28;20196;-66
2022/01/12 13:51:40;;;;;;;155.30;23.03;;;4.60;99.90;;;;;;5046268;28;20633;-65
2022/01/12 13:54:11;;;;;;;97.63;21.80;;;4.60;99.90;;;;;;5049236;28;20278;-65
2022/01/12 13:56:42;;;;;;;87.73;21.90;;;4.60;99.90;;;;;;5047115;28;20667;-65
2022/01/12 13:59:13;;;;;;;181.60;24.70;;;4.60;99.90;;;;;;5044059;28;20258;-65
2022/01/12 14:01:44;;;;;;;95.83;22.10;;;4.60;99.90;;;;;;5042415;28;20193;-65
2022/01/12 14:04:27;;;;;;;94.23;20.13;;;4.60;99.90;;;;;;5040078;28;20201;-65